Time;durP1;ratioP1;P1;durP2;ratioP2;P2;SDS_P1;SDS_P2;PMS_P1;PMS_P2;Temp;Humidity;BMP_temperature;BMP_pressure;BME280_temperature;BME280_humidity;BME280_pressure;Samples;Min_cycle;Max_cycle;Signal;HPM_P1;HPM_P2
2021/04/29 00:00:31;;;;;;;4.37;3.37;;;;;;;16.30;50.02;100010.68;1808710;78;21142;-68
2021/04/29 00:02:58;;;;;;;3.37;2.87;;;;;;;16.30;50.06;100018.72;1828181;78;21711;-68
2021/04/29 00:05:27;;;;;;;3.60;3.10;;;;;;;16.27;50.07;100015.94;1798675;78;22883;-72
2021/04/29 00:07:56;;;;;;;6.10;3.45;;;;;;;16.28;50.05;100011.39;1754628;79;21191;-71
2021/04/29 00:10:29;;;;;;;5.17;3.35;;;;;;;16.26;50.06;100012.95;1785452;79;21134;-72
2021/04/29 00:12:56;;;;;;;3.77;3.17;;;;;;;16.25;50.07;100008.61;1770248;79;21113;-72
2021/04/29 00:15:23;;;;;;;4.22;3.42;;;;;;;16.24;50.09;100004.26;1754643;79;21167;-72
2021/04/29 00:17:51;;;;;;;3.58;3.10;;;;;;;16.22;50.09;100006.31;1801394;79;21201;-72
2021/04/29 00:20:22;;;;;;;4.62;3.50;;;;;;;16.20;50.10;100008.36;1778309;78;21257;-72
2021/04/29 00:22:50;;;;;;;3.87;3.30;;;;;;;16.21;50.12;100015.91;1773934;78;21130;-73
2021/04/29 00:25:18;;;;;;;3.70;3.30;;;;;;;16.19;50.09;100013.43;1768602;79;21157;-73
2021/04/29 00:27:47;;;;;;;5.15;3.58;;;;;;;16.17;50.10;100007.44;1777958;79;21142;-72
2021/04/29 00:30:15;;;;;;;5.15;3.90;;;;;;;16.17;50.14;100002.56;1787830;79;21398;-72
2021/04/29 00:32:43;;;;;;;3.80;3.02;;;;;;;16.17;50.19;100005.25;1762639;79;21631;-72
2021/04/29 00:35:12;;;;;;;4.12;3.70;;;;;;;16.16;50.14;100006.30;1769627;79;21575;-71
2021/04/29 00:37:40;;;;;;;4.55;3.62;;;;;;;16.14;50.15;100008.34;1769959;79;21177;-72
2021/04/29 00:40:10;;;;;;;5.47;4.08;;;;;;;16.13;50.19;100010.20;1761689;79;21642;-72
2021/04/29 00:42:39;;;;;;;3.58;3.20;;;;;;;16.11;50.17;100003.70;1744811;81;21194;-72
2021/04/29 00:45:12;;;;;;;4.35;3.42;;;;;;;16.11;50.16;100005.56;1781879;79;21150;-72
2021/04/29 00:47:40;;;;;;;;;;;;;;;16.10;50.21;100002.55;1785729;79;21170;-72
2021/04/29 00:50:11;;;;;;;4.40;4.00;;;;;;;16.09;50.20;100003.59;1759534;77;21047;-72
2021/04/29 00:52:39;;;;;;;5.12;4.00;;;;;;;16.00;50.39;100003.42;1789264;78;21594;-73
2021/04/29 00:55:16;;;;;;;4.45;3.50;;;;;;;15.99;50.38;100004.44;1772261;78;21267;-73
2021/04/29 00:57:45;;;;;;;4.80;3.75;;;;;;;15.99;50.41;99997.73;1770749;78;21154;-72
2021/04/29 01:00:14;;;;;;;5.15;3.70;;;;;;;15.99;50.38;99999.08;1792071;79;21126;-73
2021/04/29 01:02:53;;;;;;;5.10;4.15;;;;;;;15.98;50.40;100001.45;1761258;79;21218;-72
2021/04/29 01:05:29;;;;;;;4.85;3.77;;;;;;;15.98;50.40;100000.94;1785353;78;21135;-73
2021/04/29 01:08:10;;;;;;;5.40;4.25;;;;;;;15.96;50.42;99993.61;1730352;79;21405;-72
2021/04/29 01:10:45;;;;;;;4.33;3.40;;;;;;;15.96;50.50;100002.17;1772637;79;21154;-73
2021/04/29 01:13:17;;;;;;;4.15;3.62;;;;;;;15.95;50.48;100000.50;1783667;79;21110;-72
2021/04/29 01:15:46;;;;;;;4.62;3.98;;;;;;;15.93;50.49;100000.69;1787593;79;21205;-72
2021/04/29 01:18:15;;;;;;;4.85;4.00;;;;;;;15.92;50.47;99998.53;1802569;79;21215;-73
2021/04/29 01:21:29;;;;;;;4.75;3.95;;;;;;;15.96;50.53;99994.13;1852431;75;28630;-73
2021/04/29 01:24:12;;;;;;;4.95;3.72;;;;;;;15.92;50.47;99995.03;1830869;77;21109;-74
2021/04/29 01:26:50;;;;;;;;;;;;;;;15.91;50.52;99996.05;1856653;77;21178;-74
2021/04/29 01:29:27;;;;;;;4.33;3.50;;;;;;;15.91;50.57;99997.38;1841093;77;20137;-73
2021/04/29 01:31:57;;;;;;;4.95;3.77;;;;;;;15.82;50.70;99998.06;1849674;77;21694;-73
2021/04/29 01:34:29;;;;;;;4.53;3.95;;;;;;;15.80;50.72;99994.75;1825910;77;21159;-73
2021/04/29 01:36:57;;;;;;;4.87;4.25;;;;;;;15.82;50.78;99992.70;1828026;77;21595;-73
2021/04/29 01:39:24;;;;;;;4.45;3.95;;;;;;;15.81;50.71;99996.39;1859522;77;21554;-73
2021/04/29 01:41:53;;;;;;;4.67;3.85;;;;;;;15.81;50.72;99991.03;1828272;77;21175;-73
2021/04/29 01:44:23;;;;;;;4.50;3.95;;;;;;;15.80;50.71;99994.75;1859523;77;21115;-72
2021/04/29 01:46:51;;;;;;;4.22;3.83;;;;;;;15.81;50.67;99995.58;1856778;77;21139;-72
2021/04/29 01:49:21;;;;;;;5.75;3.98;;;;;;;15.80;50.72;99989.40;1825807;77;21262;-73
2021/04/29 01:51:49;;;;;;;5.25;4.20;;;;;;;15.80;50.73;99988.06;1848151;77;21194;-71
2021/04/29 01:54:17;;;;;;;4.30;3.58;;;;;;;15.79;50.73;99989.06;1795259;77;21122;-72
2021/04/29 01:56:45;;;;;;;5.12;3.87;;;;;;;15.80;50.72;100000.11;1847002;77;21158;-72
2021/04/29 01:59:14;;;;;;;4.42;4.00;;;;;;;15.79;50.75;99989.59;1846817;77;21122;-72
2021/04/29 02:01:42;;;;;;;4.10;3.37;;;;;;;15.79;50.75;99999.78;1853116;77;21194;-72
2021/04/29 02:04:13;;;;;;;3.92;3.35;;;;;;;15.79;50.75;99993.61;1826839;77;21457;-72
2021/04/29 02:06:45;;;;;;;5.87;4.15;;;;;;;15.78;50.76;100000.82;1821439;77;21166;-72
2021/04/29 02:09:13;;;;;;;4.53;3.83;;;;;;;15.77;50.77;99994.31;1831412;77;21142;-72
2021/04/29 02:11:53;;;;;;;5.12;3.95;;;;;;;15.77;50.77;99996.99;1835314;77;21114;-72
2021/04/29 02:14:56;;;;;;;4.40;3.52;;;;;;;15.76;50.78;100000.68;1835684;77;21135;-72
2021/04/29 02:17:41;;;;;;;4.17;3.42;;;;;;;15.75;50.81;100002.54;1842293;77;21452;-72
2021/04/29 02:20:11;;;;;;;3.77;3.42;;;;;;;15.73;50.83;99996.55;1804537;78;21431;-73
2021/04/29 02:22:42;;;;;;;4.53;3.75;;;;;;;15.70;50.88;99998.23;1801934;79;21099;-73
2021/04/29 02:25:12;;;;;;;3.95;3.55;;;;;;;15.69;50.89;100000.62;1807707;79;21165;-74
2021/04/29 02:27:41;;;;;;;4.30;3.62;;;;;;;15.68;50.92;99998.95;1801867;79;21151;-74
2021/04/29 02:30:12;;;;;;;4.67;3.62;;;;;;;15.68;50.93;100002.96;1807794;78;21361;-72
2021/04/29 02:32:39;;;;;;;4.10;3.70;;;;;;;15.67;50.95;100005.34;1792668;79;21180;-73
2021/04/29 02:35:13;;;;;;;4.50;4.00;;;;;;;15.67;51.00;100004.00;1796766;79;21648;-73
2021/04/29 02:37:43;;;;;;;6.15;3.80;;;;;;;15.66;50.98;100007.17;1793697;79;21644;-74
2021/04/29 02:40:12;;;;;;;5.45;3.65;;;;;;;15.65;50.96;100007.39;1798094;79;21140;-73
2021/04/29 02:42:42;;;;;;;4.08;3.67;;;;;;;15.65;51.01;100014.09;1785391;79;21343;-73
2021/04/29 02:45:11;;;;;;;4.00;3.60;;;;;;;15.64;51.02;100011.89;1728304;81;21191;-73
2021/04/29 02:47:41;;;;;;;3.70;3.15;;;;;;;15.64;51.04;100010.55;1740713;82;21158;-73
2021/04/29 02:50:10;;;;;;;4.25;3.83;;;;;;;15.64;51.00;100011.89;1790335;79;21180;-75
2021/04/29 02:52:40;;;;;;;4.25;3.40;;;;;;;15.64;51.02;100017.77;1794103;79;21154;-72
2021/04/29 02:55:10;;;;;;;4.47;3.52;;;;;;;15.63;51.04;100016.13;1787938;79;21194;-73
2021/04/29 02:57:38;;;;;;;4.67;4.10;;;;;;;15.62;51.07;100017.14;1800533;79;21161;-72
2021/04/29 03:00:10;;;;;;;3.80;3.40;;;;;;;15.62;51.04;100017.14;1785779;79;21206;-71
2021/04/29 03:02:39;;;;;;;3.60;3.25;;;;;;;15.62;51.07;100015.80;1743107;80;21205;-73
2021/04/29 03:05:11;;;;;;;4.17;3.60;;;;;;;15.62;51.06;100012.60;1725165;82;21128;-73
2021/04/29 03:07:41;;;;;;;4.25;3.85;;;;;;;15.61;51.09;100008.80;1813004;79;21374;-73
2021/04/29 03:10:10;;;;;;;3.83;3.42;;;;;;;15.61;51.08;100018.17;1813232;79;21168;-72
2021/04/29 03:12:38;;;;;;;4.67;3.75;;;;;;;15.59;51.08;100017.02;1743829;82;21147;-73
2021/04/29 03:15:08;;;;;;;4.25;3.25;;;;;;;15.58;51.14;100011.86;1750903;82;21233;-73
2021/04/29 03:17:37;;;;;;;4.55;3.72;;;;;;;15.58;51.15;100015.88;1802259;79;21152;-72
2021/04/29 03:20:08;;;;;;;5.12;3.33;;;;;;;15.58;51.14;100018.03;1800764;79;21269;-73
2021/04/29 03:22:36;;;;;;;3.85;3.45;;;;;;;15.58;51.12;100019.38;1774065;80;21167;-73
2021/04/29 03:25:06;;;;;;;4.58;3.90;;;;;;;15.57;51.16;100012.86;1832881;77;21139;-72
2021/04/29 03:27:35;;;;;;;4.58;3.90;;;;;;;15.56;51.16;100012.05;1840349;77;21143;-73
2021/04/29 03:30:04;;;;;;;4.33;3.35;;;;;;;15.56;51.18;100016.06;1822113;77;21153;-74
2021/04/29 03:32:32;;;;;;;4.70;3.70;;;;;;;15.56;51.20;100016.06;1849892;77;21362;-73
2021/04/29 03:35:03;;;;;;;3.77;3.22;;;;;;;15.56;51.21;100012.56;1822685;77;21158;-73
2021/04/29 03:37:30;;;;;;;5.00;3.95;;;;;;;15.56;51.25;100017.40;1822592;77;21087;-73
2021/04/29 03:39:57;;;;;;;4.62;3.85;;;;;;;15.56;51.23;100020.08;1820276;77;21151;-72
2021/04/29 03:42:26;;;;;;;4.45;3.70;;;;;;;15.56;51.19;100019.26;1771809;79;21569;-72
2021/04/29 03:44:55;;;;;;;4.50;3.17;;;;;;;15.56;51.23;100019.26;1844039;77;21426;-72
2021/04/29 03:47:23;;;;;;;3.75;3.40;;;;;;;15.57;51.20;100024.91;1840729;77;21131;-72
2021/04/29 03:49:54;;;;;;;5.58;3.75;;;;;;;15.56;51.17;100021.94;1836274;77;21204;-73
2021/04/29 03:52:21;;;;;;;3.98;3.58;;;;;;;15.58;51.23;100023.91;1845024;77;21154;-73
2021/04/29 03:54:49;;;;;;;4.12;3.47;;;;;;;15.58;51.22;100019.89;1847851;77;21598;-73
2021/04/29 03:57:16;;;;;;;4.17;3.77;;;;;;;15.59;51.24;100026.89;1825772;77;21712;-73
2021/04/29 03:59:43;;;;;;;4.78;3.75;;;;;;;15.61;51.19;100019.00;1834580;77;21160;-74
2021/04/29 04:02:11;;;;;;;3.65;3.35;;;;;;;15.64;51.18;100023.13;1768933;79;21173;-73
2021/04/29 04:04:39;;;;;;;4.33;3.77;;;;;;;15.67;51.16;100021.41;1842851;77;21172;-74
2021/04/29 04:07:08;;;;;;;4.00;3.27;;;;;;;15.69;51.13;100019.36;1814264;77;21131;-73
2021/04/29 04:09:35;;;;;;;4.53;4.12;;;;;;;15.70;51.12;100025.88;1827957;77;21419;-72
2021/04/29 04:12:03;;;;;;;4.22;3.67;;;;;;;15.71;51.04;100026.69;1856062;77;21114;-72
2021/04/29 04:14:32;;;;;;;4.10;3.75;;;;;;;15.72;51.06;100023.83;1846273;77;21123;-73
2021/04/29 04:17:01;;;;;;;4.95;3.70;;;;;;;15.73;51.04;100019.31;1835504;77;21139;-71
2021/04/29 04:19:30;;;;;;;4.22;3.70;;;;;;;15.75;51.01;100022.63;1764617;79;21149;-72
2021/04/29 04:21:58;;;;;;;3.70;3.20;;;;;;;15.77;51.02;100023.78;1837835;77;21318;-72
2021/04/29 04:24:26;;;;;;;4.95;3.60;;;;;;;15.78;51.00;100026.27;1765264;79;21156;-73
2021/04/29 04:26:54;;;;;;;4.42;3.37;;;;;;;15.79;51.00;100021.73;1779068;79;21154;-72
2021/04/29 04:29:22;;;;;;;4.42;3.77;;;;;;;15.81;51.05;100029.06;1790787;79;21179;-72
2021/04/29 04:31:49;;;;;;;3.67;3.27;;;;;;;15.81;51.06;100017.83;1803517;79;21639;-72
2021/04/29 04:34:17;;;;;;;4.55;3.58;;;;;;;15.83;51.05;100018.45;1792441;79;21262;-73
2021/04/29 04:36:46;;;;;;;4.22;3.33;;;;;;;15.83;51.07;100017.11;1787363;79;21168;-74
2021/04/29 04:39:13;;;;;;;4.37;3.95;;;;;;;15.83;51.06;100013.09;1807064;79;21171;-74
2021/04/29 04:41:40;;;;;;;4.08;3.45;;;;;;;15.85;51.08;100016.92;1804228;79;21417;-74
2021/04/29 04:44:08;;;;;;;3.92;3.35;;;;;;;15.86;51.02;100018.08;1763756;80;21134;-73
2021/04/29 04:46:35;;;;;;;4.97;3.70;;;;;;;15.87;51.03;100017.03;1775161;79;22114;-73
2021/04/29 04:49:03;;;;;;;4.03;3.40;;;;;;;15.88;51.03;100024.06;1772776;79;21937;-72
2021/04/29 04:51:31;;;;;;;4.70;3.77;;;;;;;15.91;50.99;100022.83;1799164;79;21402;-73
2021/04/29 04:53:59;;;;;;;3.30;2.77;;;;;;;15.92;50.97;100021.83;1774075;80;21121;-72
2021/04/29 04:56:27;;;;;;;3.85;3.42;;;;;;;15.93;50.92;100016.77;1804892;79;21824;-72
2021/04/29 04:58:55;;;;;;;3.98;3.47;;;;;;;15.95;50.91;100021.41;1775202;79;22883;-72
2021/04/29 05:01:23;;;;;;;4.05;3.55;;;;;;;15.97;50.88;100014.52;1804118;79;21140;-73
2021/04/29 05:03:50;;;;;;;3.87;3.47;;;;;;;15.98;50.89;100024.23;1701813;80;21084;-73
2021/04/29 05:06:17;;;;;;;4.10;3.42;;;;;;;15.99;50.86;100024.02;1730883;80;21139;-73
2021/04/29 05:08:45;;;;;;;3.67;3.30;;;;;;;16.00;50.80;100021.66;1793906;79;21179;-72
2021/04/29 05:11:12;;;;;;;3.67;2.98;;;;;;;16.02;50.84;100025.49;1774225;79;21384;-73
2021/04/29 05:13:40;;;;;;;4.28;3.55;;;;;;;16.03;50.82;100024.45;1762325;80;21135;-73
2021/04/29 05:16:07;;;;;;;3.85;3.40;;;;;;;16.03;50.78;100025.79;1839167;77;21128;-72
2021/04/29 05:18:34;;;;;;;3.60;3.12;;;;;;;16.04;50.80;100023.44;1832055;77;21091;-72
2021/04/29 05:21:02;;;;;;;4.00;3.60;;;;;;;16.05;50.78;100028.61;1823585;77;21175;-72
2021/04/29 05:23:30;;;;;;;5.03;3.40;;;;;;;16.05;50.78;100029.95;1812362;77;21364;-73
2021/04/29 05:25:58;;;;;;;3.50;3.20;;;;;;;16.08;50.79;100028.20;1819510;77;21172;-71
2021/04/29 05:28:25;;;;;;;3.90;3.45;;;;;;;16.08;50.77;100026.86;1829036;77;21201;-72
2021/04/29 05:30:52;;;;;;;4.50;3.62;;;;;;;16.10;50.75;100028.01;1835545;77;21147;-75
2021/04/29 05:33:20;;;;;;;3.95;3.25;;;;;;;16.10;50.72;100029.34;1817143;77;21103;-72
2021/04/29 05:35:48;;;;;;;3.62;3.17;;;;;;;16.11;50.71;100031.84;1814632;77;21194;-74
2021/04/29 05:38:15;;;;;;;4.47;3.77;;;;;;;16.13;50.71;100031.65;1807816;77;21430;-74
2021/04/29 05:40:43;;;;;;;3.77;3.35;;;;;;;16.15;50.70;100035.45;1765851;79;21185;-74
2021/04/29 05:43:12;;;;;;;3.65;3.30;;;;;;;16.15;50.69;100030.94;1792344;79;21631;-74
2021/04/29 05:45:40;;;;;;;4.50;3.52;;;;;;;16.17;50.72;100032.05;1779278;79;21183;-73
2021/04/29 05:48:08;;;;;;;4.40;3.50;;;;;;;16.18;50.68;100037.22;1772693;79;21327;-72
2021/04/29 05:50:36;;;;;;;3.75;3.27;;;;;;;16.19;50.67;100033.53;1782303;79;21171;-71
2021/04/29 05:53:03;;;;;;;3.95;3.30;;;;;;;16.21;50.67;100039.52;1784073;79;21136;-70
2021/04/29 05:55:30;;;;;;;4.20;3.30;;;;;;;16.22;50.65;100031.78;1793796;79;21135;-71
2021/04/29 05:57:59;;;;;;;4.67;3.50;;;;;;;16.25;50.62;100036.75;1781068;79;21145;-71
2021/04/29 06:00:27;;;;;;;4.10;3.60;;;;;;;16.27;50.62;100032.02;1765777;80;21303;-71
2021/04/29 06:02:57;;;;;;;3.92;3.52;;;;;;;16.28;50.60;100031.02;1763391;80;21229;-71
2021/04/29 06:05:25;;;;;;;4.80;3.45;;;;;;;16.31;50.60;100039.16;1774061;79;22150;-70
2021/04/29 06:08:00;;;;;;;4.30;3.45;;;;;;;16.31;50.56;100029.25;1773140;79;21594;-71
2021/04/29 06:10:28;;;;;;;3.70;3.33;;;;;;;16.34;50.53;100037.92;1762517;79;21599;-72
2021/04/29 06:12:56;;;;;;;5.15;3.70;;;;;;;16.36;50.57;100034.53;1781664;79;21377;-70
2021/04/29 06:15:24;;;;;;;4.08;3.55;;;;;;;16.39;50.55;100039.51;1793320;79;21186;-70
2021/04/29 06:17:51;;;;;;;4.10;3.37;;;;;;;16.40;50.55;100039.80;1771988;79;21190;-70
2021/04/29 06:20:18;;;;;;;4.35;3.30;;;;;;;16.44;50.50;100042.43;1772305;79;21137;-71
2021/04/29 06:22:46;;;;;;;4.60;3.60;;;;;;;16.46;50.52;100047.08;1764509;80;21142;-71
2021/04/29 06:25:14;;;;;;;4.50;3.33;;;;;;;16.48;50.55;100045.02;1796897;79;21440;-70
2021/04/29 06:27:42;;;;;;;4.78;3.62;;;;;;;16.51;50.58;100053.99;1788379;79;21216;-71
2021/04/29 06:30:11;;;;;;;4.55;3.37;;;;;;;16.54;50.57;100042.06;1779277;79;21151;-71
2021/04/29 06:32:39;;;;;;;4.65;3.77;;;;;;;16.57;50.54;100044.32;1807186;79;21560;-71
2021/04/29 06:35:08;;;;;;;3.67;3.27;;;;;;;16.59;50.50;100040.92;1805588;79;21160;-70
2021/04/29 06:37:36;;;;;;;4.20;3.22;;;;;;;16.63;50.47;100038.16;1807247;79;22116;-72
2021/04/29 06:40:05;;;;;;;3.50;3.20;;;;;;;16.64;50.46;100036.62;1783856;79;21755;-70
2021/04/29 06:42:33;;;;;;;4.95;3.80;;;;;;;16.67;50.42;100032.73;1800607;78;21154;-71
2021/04/29 06:45:00;;;;;;;5.78;4.33;;;;;;;16.71;50.41;100025.93;1777247;79;21544;-72
2021/04/29 06:47:32;;;;;;;4.12;3.30;;;;;;;16.74;50.40;100031.40;1800257;79;21178;-72
2021/04/29 06:49:57;;;;;;;4.97;3.67;;;;;;;16.78;50.46;100031.30;1802530;79;21563;-72
2021/04/29 06:52:24;;;;;;;4.20;3.65;;;;;;;16.80;50.39;100033.27;1799066;79;21161;-71
2021/04/29 06:54:51;;;;;;;3.83;3.02;;;;;;;16.83;50.45;100036.94;1757545;80;21156;-71
2021/04/29 06:57:19;;;;;;;3.75;3.33;;;;;;;16.86;50.49;100037.36;1799218;79;21220;-70
2021/04/29 06:59:46;;;;;;;3.72;3.35;;;;;;;16.90;50.46;100036.42;1768757;80;21182;-71
2021/04/29 07:02:14;;;;;;;4.17;3.60;;;;;;;16.93;50.53;100030.66;1767001;80;21386;-72
2021/04/29 07:04:43;;;;;;;4.08;3.65;;;;;;;16.96;50.55;100035.62;1775887;80;21190;-71
2021/04/29 07:07:11;;;;;;;6.37;3.45;;;;;;;17.00;50.61;100036.06;1824529;77;21123;-72
2021/04/29 07:09:39;;;;;;;3.50;3.20;;;;;;;17.03;50.55;100035.11;1787133;79;21164;-71
2021/04/29 07:12:08;;;;;;;3.83;3.30;;;;;;;17.07;50.52;100031.51;1825779;77;21112;-71
2021/04/29 07:14:35;;;;;;;3.85;3.40;;;;;;;17.09;50.53;100022.24;1760117;79;21407;-70
2021/04/29 07:17:03;;;;;;;4.78;3.10;;;;;;;17.13;50.58;100027.19;1773191;80;21150;-64
2021/04/29 07:19:32;;;;;;;4.17;3.40;;;;;;;17.17;50.56;100023.06;1802917;79;21112;-64
2021/04/29 07:21:59;;;;;;;3.80;3.33;;;;;;;17.19;50.57;100028.55;1802213;79;21160;-63
2021/04/29 07:24:28;;;;;;;4.03;3.35;;;;;;;17.23;50.50;100026.27;1768622;79;21153;-64
2021/04/29 07:26:55;;;;;;;4.17;3.20;;;;;;;17.24;50.47;100022.56;1773622;79;21344;-64
2021/04/29 07:29:23;;;;;;;3.42;3.08;;;;;;;17.27;50.36;100026.19;1801079;79;21123;-65
2021/04/29 07:31:50;;;;;;;3.95;3.22;;;;;;;17.30;50.34;100024.42;1775458;79;21136;-65
2021/04/29 07:34:19;;;;;;;4.15;3.75;;;;;;;17.32;50.29;100025.56;1764686;79;21128;-66
2021/04/29 07:36:46;;;;;;;3.83;3.20;;;;;;;17.33;50.28;100019.99;1780759;80;21136;-64
2021/04/29 07:39:14;;;;;;;4.53;3.50;;;;;;;17.35;50.39;100023.30;1774095;79;21391;-63
2021/04/29 07:41:41;;;;;;;4.17;3.25;;;;;;;17.38;50.49;100023.39;1763248;80;21666;-62
2021/04/29 07:44:09;;;;;;;4.15;3.45;;;;;;;17.40;50.49;100018.64;1755239;79;21556;-65
2021/04/29 07:46:36;;;;;;;3.72;3.17;;;;;;;17.44;50.57;100019.87;1764096;80;21219;-63
2021/04/29 07:49:04;;;;;;;3.55;3.22;;;;;;;17.47;50.55;100017.61;1840219;77;22191;-62
2021/04/29 07:51:32;;;;;;;5.17;3.52;;;;;;;17.49;50.54;100016.06;1790540;79;21189;-62
2021/04/29 07:54:03;;;;;;;3.15;2.85;;;;;;;17.53;50.55;100015.96;1799297;79;21201;-64
2021/04/29 07:56:30;;;;;;;3.60;3.30;;;;;;;17.57;50.59;100011.83;1778546;79;21162;-63
2021/04/29 07:58:57;;;;;;;3.25;2.90;;;;;;;17.61;50.71;100012.23;1781040;79;21168;-64
2021/04/29 08:01:25;;;;;;;4.33;3.08;;;;;;;17.64;50.78;100011.31;1787616;79;21159;-63
2021/04/29 08:03:52;;;;;;;3.40;3.10;;;;;;;17.68;50.92;100011.20;1795672;79;21382;-64
2021/04/29 08:06:20;;;;;;;3.42;3.05;;;;;;;17.72;51.01;100008.11;1777687;78;21617;-64
2021/04/29 08:08:48;;;;;;;3.75;3.08;;;;;;;17.75;51.01;100006.33;1778423;79;21180;-65
2021/04/29 08:11:16;;;;;;;3.27;2.98;;;;;;;17.77;50.97;99997.05;1799781;79;21156;-64
2021/04/29 08:13:44;;;;;;;3.35;2.60;;;;;;;17.77;50.84;99988.14;1773232;80;21181;-64
2021/04/29 08:16:12;;;;;;;3.25;2.95;;;;;;;17.82;50.86;99992.38;1799858;79;21612;-64
2021/04/29 08:18:39;;;;;;;3.55;2.98;;;;;;;17.84;50.88;99983.62;1758919;80;21214;-65
2021/04/29 08:21:08;;;;;;;4.10;3.33;;;;;;;17.87;50.84;99991.27;1753423;80;21139;-64
2021/04/29 08:23:36;;;;;;;3.30;2.87;;;;;;;17.88;50.93;99987.53;1789384;79;21869;-64
2021/04/29 08:26:03;;;;;;;3.50;3.20;;;;;;;17.91;50.80;99988.47;1853801;77;21143;-63
2021/04/29 08:28:30;;;;;;;3.00;2.62;;;;;;;17.94;50.82;99992.59;1832133;77;21352;-63
2021/04/29 08:30:58;;;;;;;3.33;2.80;;;;;;;17.97;50.83;99981.43;1848388;77;21151;-63
2021/04/29 08:33:25;;;;;;;2.75;2.55;;;;;;;18.00;51.01;99983.68;1831562;77;21583;-62
2021/04/29 08:35:55;;;;;;;3.33;2.85;;;;;;;18.03;51.00;99976.55;1843740;77;21123;-62
2021/04/29 08:38:22;;;;;;;3.40;3.00;;;;;;;18.07;51.08;99971.05;1831778;77;21167;-63
2021/04/29 08:40:50;;;;;;;2.60;2.40;;;;;;;18.12;51.06;99976.63;1840559;77;21310;-62
2021/04/29 08:43:19;;;;;;;3.40;2.95;;;;;;;18.17;51.06;99981.36;1851393;77;21158;-62
2021/04/29 08:45:47;;;;;;;3.60;3.02;;;;;;;18.22;51.13;99977.53;1837896;77;21106;-63
2021/04/29 08:48:19;;;;;;;3.40;2.72;;;;;;;18.26;50.97;99982.78;1856092;77;21095;-63
2021/04/29 08:50:46;;;;;;;3.00;2.70;;;;;;;18.32;50.89;99962.28;1843345;77;21119;-63
2021/04/29 08:53:14;;;;;;;3.25;2.95;;;;;;;18.37;50.96;99957.92;1840565;77;21350;-64
2021/04/29 08:55:41;;;;;;;3.30;2.98;;;;;;;18.42;50.97;99959.95;1851040;77;21166;-64
2021/04/29 08:58:10;;;;;;;3.75;2.98;;;;;;;18.48;50.97;99941.61;1827900;77;21123;-62
2021/04/29 09:00:38;;;;;;;3.25;2.83;;;;;;;18.54;50.96;99962.27;1846202;77;21617;-67
2021/04/29 09:03:05;;;;;;;3.10;2.80;;;;;;;18.59;51.18;99940.93;1827917;77;21159;-63
2021/04/29 09:05:33;;;;;;;3.05;2.75;;;;;;;18.64;51.13;99939.77;1822418;77;21202;-62
2021/04/29 09:08:07;;;;;;;4.08;2.47;;;;;;;18.71;51.01;99941.06;1820269;77;21697;-62
2021/04/29 09:10:40;;;;;;;3.02;2.70;;;;;;;18.78;51.16;99942.38;1826020;77;21555;-63
2021/04/29 09:13:19;;;;;;;3.42;2.50;;;;;;;18.83;51.10;99937.19;1838949;77;21127;-63
2021/04/29 09:15:47;;;;;;;2.30;2.10;;;;;;;18.88;51.01;99938.72;1855496;77;21083;-63
2021/04/29 09:18:21;;;;;;;4.22;2.75;;;;;;;18.92;51.07;99937.23;1819160;77;21235;-63
2021/04/29 09:20:57;;;;;;;3.05;2.65;;;;;;;18.95;50.97;99927.39;1817881;77;21179;-62
2021/04/29 09:23:29;;;;;;;3.33;2.47;;;;;;;19.00;50.83;99924.84;1822992;77;21116;-64
2021/04/29 09:26:03;;;;;;;2.90;2.58;;;;;;;19.07;50.87;99928.03;1814086;77;21101;-64
2021/04/29 09:28:49;;;;;;;2.60;2.40;;;;;;;19.12;50.64;99930.34;1819470;77;21164;-63
2021/04/29 09:31:25;;;;;;;3.65;2.60;;;;;;;19.16;50.64;99918.11;1807004;77;21580;-64
2021/04/29 09:33:58;;;;;;;2.65;2.33;;;;;;;19.22;50.69;99915.88;1822778;77;21428;-63
2021/04/29 09:36:31;;;;;;;3.00;2.70;;;;;;;19.28;50.34;99907.44;1847365;77;28224;-63
2021/04/29 09:39:13;;;;;;;2.65;2.40;;;;;;;19.35;50.58;99900.63;1814976;77;21125;-63
2021/04/29 09:41:48;;;;;;;3.12;2.47;;;;;;;19.42;50.66;99908.95;1814252;77;21138;-65
2021/04/29 09:44:21;;;;;;;2.30;2.05;;;;;;;19.51;50.71;99904.61;1814173;77;21391;-62
2021/04/29 09:46:51;;;;;;;4.20;2.70;;;;;;;19.57;50.82;99892.97;1837386;77;21096;-63
2021/04/29 09:49:32;;;;;;;3.25;2.50;;;;;;;19.64;50.78;99886.96;1836496;77;21266;-62
2021/04/29 09:52:03;;;;;;;2.98;2.50;;;;;;;19.72;50.96;99888.56;1838383;77;21151;-63
2021/04/29 09:54:35;;;;;;;3.02;2.50;;;;;;;19.78;50.62;99885.81;1830852;77;21221;-64
2021/04/29 09:57:08;;;;;;;2.80;2.55;;;;;;;19.84;50.07;99882.22;1810736;77;21365;-63
2021/04/29 09:59:45;;;;;;;2.65;2.27;;;;;;;19.90;50.03;99881.84;1826076;77;21647;-64
2021/04/29 10:02:15;;;;;;;2.85;2.65;;;;;;;19.98;50.29;99881.52;1846080;77;21587;-72
2021/04/29 10:04:45;;;;;;;2.40;2.20;;;;;;;20.04;50.28;99877.91;1806583;77;21121;-71
2021/04/29 10:07:15;;;;;;;2.50;2.30;;;;;;;20.13;50.21;99868.19;1828038;77;21176;-62
2021/04/29 10:09:44;;;;;;;2.40;2.15;;;;;;;20.21;50.30;99863.81;1842008;77;21190;-63
2021/04/29 10:12:14;;;;;;;2.42;2.22;;;;;;;20.29;50.18;99868.06;1825924;77;21148;-64
2021/04/29 10:14:48;;;;;;;2.50;2.30;;;;;;;20.37;50.18;99852.36;1805939;77;21145;-62
2021/04/29 10:17:17;;;;;;;3.35;2.60;;;;;;;20.49;50.20;99851.05;1834737;77;21171;-64
2021/04/29 10:19:51;;;;;;;3.17;2.15;;;;;;;20.59;50.70;99846.44;1823999;77;21135;-71
2021/04/29 10:22:19;;;;;;;2.75;2.52;;;;;;;20.70;51.46;99850.25;1826685;77;22280;-70
2021/04/29 10:24:47;;;;;;;2.17;1.98;;;;;;;20.79;51.45;99836.72;1821188;77;21163;-71
2021/04/29 10:27:25;;;;;;;3.42;2.25;;;;;;;20.91;51.67;99855.63;1831936;77;21099;-72
2021/04/29 10:30:11;;;;;;;2.77;2.58;;;;;;;20.99;51.20;99847.98;1811642;77;21624;-72
2021/04/29 10:32:39;;;;;;;7.42;3.50;;;;;;;21.08;50.91;99847.66;1821496;77;21099;-67
2021/04/29 10:35:23;;;;;;;7.65;4.78;;;;;;;21.13;49.84;99845.06;1841288;77;21351;-68
2021/04/29 10:38:01;;;;;;;7.65;4.37;;;;;;;21.20;49.50;99849.83;1811606;77;21173;-69
2021/04/29 10:40:35;;;;;;;6.03;4.15;;;;;;;21.29;48.92;99842.20;1821655;77;21587;-67
2021/04/29 10:43:04;;;;;;;6.87;4.60;;;;;;;21.39;49.54;99841.06;1834175;77;21143;-69
2021/04/29 10:45:32;;;;;;;7.00;4.60;;;;;;;21.51;47.97;99841.89;1830522;77;21122;-70
2021/04/29 10:48:10;;;;;;;7.50;4.72;;;;;;;21.62;46.98;99834.02;1808912;77;21396;-68
2021/04/29 10:50:43;;;;;;;6.03;4.08;;;;;;;21.73;45.66;99828.58;1768319;79;21173;-68
2021/04/29 10:53:13;;;;;;;7.42;4.70;;;;;;;21.86;45.29;99827.46;1773019;80;21151;-67
2021/04/29 10:55:43;;;;;;;6.30;3.80;;;;;;;21.97;43.87;99819.03;1770728;80;21188;-68
2021/04/29 10:58:22;;;;;;;5.72;3.90;;;;;;;22.08;41.69;99848.43;1758877;80;21611;-68
2021/04/29 11:01:13;;;;;;;8.53;3.90;;;;;;;22.15;41.10;99818.81;1757512;80;21158;-68
2021/04/29 11:06:30;;;;;;;8.48;4.40;;;;;;;22.43;40.33;99817.19;1828735;77;22272;-69
2021/04/29 11:08:58;;;;;;;6.37;4.10;;;;;;;22.50;39.73;99819.73;1811758;78;21199;-72
2021/04/29 11:14:43;;;;;;;7.60;4.05;;;;;;;22.72;38.85;99823.90;1734653;78;21234;-71
2021/04/29 11:17:21;;;;;;;8.70;4.37;;;;;;;22.87;38.84;99834.98;1761788;80;21230;-72
2021/04/29 11:19:58;;;;;;;6.00;4.00;;;;;;;22.97;38.37;99809.39;1763288;80;21206;-71
2021/04/29 11:25:11;;;;;;;4.65;3.70;;;;;;;23.24;35.03;99809.27;1826415;76;23300;-72
2021/04/29 11:27:40;;;;;;;4.62;3.80;;;;;;;23.28;34.28;99789.53;1811351;78;21161;-71
2021/04/29 11:30:12;;;;;;;8.43;4.35;;;;;;;23.38;32.69;99821.91;1799685;78;22159;-74
2021/04/29 11:33:02;;;;;;;7.10;3.67;;;;;;;23.45;32.79;99813.04;1816057;77;21036;-72
2021/04/29 11:35:33;;;;;;;5.30;3.65;;;;;;;23.50;31.26;99823.96;1825866;77;21247;-71
2021/04/29 11:38:02;;;;;;;7.75;3.70;;;;;;;23.47;31.91;99814.45;1851196;77;21143;-72
2021/04/29 11:40:32;;;;;;;7.03;3.52;;;;;;;23.48;32.13;99801.16;1803854;77;21167;-71
2021/04/29 11:43:00;;;;;;;5.60;3.67;;;;;;;23.53;31.63;99789.58;1828841;77;22270;-71
2021/04/29 11:45:36;;;;;;;7.40;3.52;;;;;;;23.60;31.54;99794.25;1795559;78;21040;-71
2021/04/29 11:48:12;;;;;;;4.80;3.47;;;;;;;23.67;31.13;99793.53;1809596;78;21173;-71
2021/04/29 11:50:51;;;;;;;6.75;3.67;;;;;;;23.75;30.60;99778.16;1818517;77;21672;-71